createdAt,value
2023-01-29T00:02:14.800Z,-3.19
2023-01-29T00:04:42.346Z,-3.26
2023-01-29T00:07:09.548Z,-3.23
2023-01-29T00:09:37.087Z,-3.21
2023-01-29T00:12:04.417Z,-3.15
2023-01-29T00:14:31.929Z,-3.06
2023-01-29T00:16:59.203Z,-2.95
2023-01-29T00:19:27.696Z,-2.98
2023-01-29T00:21:55.042Z,-2.89
2023-01-29T00:24:23.015Z,-2.92
2023-01-29T00:26:50.481Z,-2.93
2023-01-29T00:29:18.637Z,-2.81
2023-01-29T00:31:46.386Z,-2.78
2023-01-29T00:34:14.137Z,-2.96
2023-01-29T00:36:41.477Z,-2.97
2023-01-29T00:39:11.141Z,-2.95
2023-01-29T00:41:57.603Z,-2.99
2023-01-29T00:44:43.665Z,-2.97
2023-01-29T00:47:29.698Z,-2.93
2023-01-29T00:49:57.757Z,-2.95
2023-01-29T00:52:25.384Z,-2.91
2023-01-29T00:54:54.611Z,-2.92
2023-01-29T00:57:22.885Z,-3.01
2023-01-29T00:59:50.668Z,-3.01
2023-01-29T01:02:36.536Z,-3.01
2023-01-29T01:05:07.916Z,-2.95
2023-01-29T01:07:35.196Z,-2.96
2023-01-29T01:10:21.243Z,-3.00
2023-01-29T01:12:51.881Z,-2.84
2023-01-29T01:15:20.374Z,-2.90
2023-01-29T01:17:49.017Z,-2.90
2023-01-29T01:20:17.727Z,-2.90
2023-01-29T01:22:45.180Z,-2.99
2023-01-29T01:25:12.773Z,-2.94
2023-01-29T01:27:41.455Z,-2.92
2023-01-29T01:30:15.796Z,-2.87
2023-01-29T01:32:43.511Z,-3.04
2023-01-29T01:35:12.046Z,-2.93
2023-01-29T01:37:39.297Z,-2.96
2023-01-29T01:40:13.429Z,-2.77
2023-01-29T01:42:40.886Z,-2.81
2023-01-29T01:45:19.927Z,-2.71
2023-01-29T01:48:00.819Z,-2.77
2023-01-29T01:50:58.943Z,-2.75
2023-01-29T01:53:39.769Z,-2.71
2023-01-29T01:56:16.545Z,-2.69
2023-01-29T01:58:54.381Z,-2.77
2023-01-29T02:01:28.237Z,-2.89
2023-01-29T02:04:39.768Z,-2.94
2023-01-29T02:07:29.811Z,-3.07
2023-01-29T02:10:05.791Z,-3.07
2023-01-29T02:12:33.470Z,-3.15
2023-01-29T02:15:00.854Z,-3.16
2023-01-29T02:17:28.598Z,-3.07
2023-01-29T02:20:18.646Z,-2.92
2023-01-29T02:22:56.212Z,-2.89
2023-01-29T02:26:09.825Z,-2.86
2023-01-29T02:28:49.162Z,-2.98
2023-01-29T02:31:28.484Z,-2.84
2023-01-29T02:34:11.282Z,-2.76
2023-01-29T02:36:56.282Z,-2.73
2023-01-29T02:40:08.918Z,-2.71
2023-01-29T02:42:53.259Z,-2.73
2023-01-29T02:45:40.285Z,-2.77
2023-01-29T02:48:17.365Z,-2.83
2023-01-29T02:51:14.358Z,-2.81
2023-01-29T02:53:53.707Z,-2.81
2023-01-29T02:56:29.414Z,-2.96
2023-01-29T02:59:11.206Z,-2.87
2023-01-29T03:01:48.762Z,-2.93
2023-01-29T03:04:22.950Z,-2.93
2023-01-29T03:07:01.694Z,-2.88
2023-01-29T03:09:41.982Z,-2.97
2023-01-29T03:12:34.238Z,-2.88
2023-01-29T03:15:12.269Z,-2.91
2023-01-29T03:17:52.829Z,-3.01
2023-01-29T03:20:26.726Z,-2.96
2023-01-29T03:23:04.521Z,-3.06
2023-01-29T03:25:53.245Z,-2.99
2023-01-29T03:28:41.839Z,-2.93
2023-01-29T03:31:33.195Z,-3.16
2023-01-29T03:34:16.718Z,-3.28
2023-01-29T03:37:04.059Z,-3.22
2023-01-29T03:39:31.823Z,-3.31
2023-01-29T03:42:27.279Z,-3.37
2023-01-29T03:44:57.794Z,-3.43
2023-01-29T03:48:19.744Z,-3.28
2023-01-29T03:50:54.627Z,-3.31
2023-01-29T03:53:37.220Z,-3.39
2023-01-29T03:56:12.866Z,-3.29
2023-01-29T03:58:47.365Z,-3.35
2023-01-29T04:01:40.018Z,-3.18
2023-01-29T04:04:34.573Z,-3.16
2023-01-29T04:07:12.397Z,-3.15
2023-01-29T04:09:51.634Z,-3.15
2023-01-29T04:12:25.017Z,-3.09
2023-01-29T04:14:54.511Z,-3.19
2023-01-29T04:17:33.152Z,-3.16
2023-01-29T04:20:07.654Z,-3.24
2023-01-29T04:22:38.329Z,-3.28
2023-01-29T04:25:16.222Z,-3.17
2023-01-29T04:28:17.084Z,-3.13
2023-01-29T04:30:55.387Z,-3.20
2023-01-29T04:33:31.265Z,-3.18
2023-01-29T04:36:07.257Z,-3.33
2023-01-29T04:38:37.907Z,-3.39
2023-01-29T04:41:24.634Z,-3.31
2023-01-29T04:44:20.830Z,-3.39
2023-01-29T04:47:15.724Z,-3.38
2023-01-29T04:49:50.662Z,-3.40
2023-01-29T04:52:20.659Z,-3.45
2023-01-29T04:55:06.644Z,-3.37
2023-01-29T04:57:59.770Z,-3.44
2023-01-29T05:00:32.575Z,-3.45
2023-01-29T05:03:00.896Z,-3.49
2023-01-29T05:05:29.290Z,-3.48
2023-01-29T05:07:58.512Z,-3.52
2023-01-29T05:10:27.777Z,-3.61
2023-01-29T05:13:00.779Z,-3.52
2023-01-29T05:16:00.710Z,-3.46
2023-01-29T05:18:29.552Z,-3.57
2023-01-29T05:21:00.306Z,-3.62
2023-01-29T05:23:27.512Z,-3.66
2023-01-29T05:25:57.180Z,-3.59
2023-01-29T05:28:24.484Z,-3.55
2023-01-29T05:30:54.690Z,-3.50
2023-01-29T05:33:31.091Z,-3.44
2023-01-29T05:36:00.161Z,-3.51
2023-01-29T05:38:27.340Z,-3.60
2023-01-29T05:40:55.010Z,-3.53
2023-01-29T05:43:24.478Z,-3.44
2023-01-29T05:45:59.169Z,-3.42
2023-01-29T05:48:32.256Z,-3.52
2023-01-29T05:51:04.368Z,-3.51
2023-01-29T05:53:32.430Z,-3.71
2023-01-29T05:56:04.824Z,-3.72
2023-01-29T05:58:33.285Z,-3.82
2023-01-29T06:01:14.540Z,-3.79
2023-01-29T06:03:41.762Z,-3.93
2023-01-29T06:06:09.829Z,-3.82
2023-01-29T06:08:37.597Z,-3.76
2023-01-29T06:11:08.900Z,-3.69
2023-01-29T06:13:36.520Z,-3.67
2023-01-29T06:16:08.083Z,-3.62
2023-01-29T06:18:36.893Z,-3.68
2023-01-29T06:21:06.483Z,-3.68
2023-01-29T06:23:34.218Z,-3.72
2023-01-29T06:26:07.655Z,-3.61
2023-01-29T06:28:35.124Z,-3.77
2023-01-29T06:31:23.685Z,-3.75
2023-01-29T06:33:51.741Z,-3.79
2023-01-29T06:36:19.311Z,-3.79
2023-01-29T06:38:47.419Z,-3.88
2023-01-29T06:41:18.245Z,-3.71
2023-01-29T06:43:46.207Z,-3.77
2023-01-29T06:46:13.951Z,-3.79
2023-01-29T06:48:41.277Z,-3.83
2023-01-29T06:51:10.095Z,-3.78
2023-01-29T06:53:38.498Z,-3.76
2023-01-29T06:56:06.872Z,-3.77
2023-01-29T06:58:39.853Z,-3.64
2023-01-29T07:01:17.444Z,-3.63
2023-01-29T07:03:52.648Z,-3.71
2023-01-29T07:06:20.444Z,-3.75
2023-01-29T07:08:47.654Z,-3.75
2023-01-29T07:11:15.216Z,-3.67
2023-01-29T07:13:42.366Z,-3.64
2023-01-29T07:16:10.411Z,-3.59
2023-01-29T07:18:37.676Z,-3.69
2023-01-29T07:21:08.334Z,-3.56
2023-01-29T07:23:35.724Z,-3.64
2023-01-29T07:26:05.059Z,-3.59
2023-01-29T07:28:32.422Z,-3.63
2023-01-29T07:31:00.053Z,-3.60
2023-01-29T07:33:27.534Z,-3.56
2023-01-29T07:35:55.070Z,-3.59
2023-01-29T07:38:22.268Z,-3.63
2023-01-29T07:40:51.945Z,-3.68
2023-01-29T07:43:19.102Z,-3.69
2023-01-29T07:45:46.907Z,-3.73
2023-01-29T07:48:14.318Z,-3.79
2023-01-29T07:50:42.123Z,-3.80
2023-01-29T07:53:15.593Z,-3.80
2023-01-29T07:55:45.548Z,-3.98
2023-01-29T07:58:13.079Z,-4.08
2023-01-29T08:00:40.682Z,-4.11
2023-01-29T08:03:12.168Z,-4.04
2023-01-29T08:05:39.764Z,-4.18
2023-01-29T08:08:07.966Z,-4.20
2023-01-29T08:10:36.900Z,-4.20
2023-01-29T08:13:05.460Z,-4.21
2023-01-29T08:15:34.032Z,-4.21
2023-01-29T08:18:02.760Z,-4.22
2023-01-29T08:20:30.533Z,-4.30
2023-01-29T08:23:02.404Z,-4.26
2023-01-29T08:25:30.408Z,-4.42
2023-01-29T08:27:58.866Z,-4.42
2023-01-29T08:30:29.306Z,-4.44
2023-01-29T08:32:56.888Z,-4.50
2023-01-29T08:35:25.368Z,-4.45
2023-01-29T08:37:58.506Z,-4.43
2023-01-29T08:40:27.669Z,-4.46
2023-01-29T08:43:02.004Z,-4.51
2023-01-29T08:45:32.056Z,-4.58
2023-01-29T08:47:59.402Z,-4.56
2023-01-29T08:50:27.292Z,-4.54
2023-01-29T08:52:59.283Z,-4.43
2023-01-29T08:55:27.705Z,-4.49
2023-01-29T08:57:57.470Z,-4.49
2023-01-29T09:00:25.210Z,-4.47
2023-01-29T09:02:52.602Z,-4.38
2023-01-29T09:05:20.619Z,-4.34
2023-01-29T09:07:48.199Z,-4.37
2023-01-29T09:10:16.460Z,-4.31
2023-01-29T09:12:43.704Z,-4.30
2023-01-29T09:15:11.802Z,-4.25
2023-01-29T09:17:39.195Z,-4.21
2023-01-29T09:20:07.875Z,-4.13
2023-01-29T09:22:35.320Z,-4.13
2023-01-29T09:25:03.447Z,-4.08
2023-01-29T09:27:30.935Z,-4.14
2023-01-29T09:29:58.467Z,-4.06
2023-01-29T09:32:52.151Z,-4.06
2023-01-29T09:35:13.552Z,-4.14
2023-01-29T09:37:40.919Z,-4.13
2023-01-29T09:40:21.397Z,-4.02
2023-01-29T09:43:01.853Z,-4.01
2023-01-29T09:45:31.749Z,-4.34
2023-01-29T09:48:06.090Z,-4.01
2023-01-29T09:50:41.265Z,-3.97
2023-01-29T09:53:23.227Z,-3.94
2023-01-29T09:55:59.910Z,-3.76
2023-01-29T09:58:36.072Z,-3.71
2023-01-29T10:01:12.345Z,-3.62
2023-01-29T10:04:04.244Z,-3.56
2023-01-29T10:06:59.430Z,-3.40
2023-01-29T10:10:04.130Z,-3.41
2023-01-29T10:12:48.444Z,-3.61
2023-01-29T10:15:21.926Z,-3.48
2023-01-29T10:17:52.178Z,-3.58
2023-01-29T10:20:39.050Z,-3.54
2023-01-29T10:23:26.725Z,-3.39
2023-01-29T10:25:55.350Z,-3.31
2023-01-29T10:28:29.671Z,-3.22
2023-01-29T10:31:07.488Z,-3.20
2023-01-29T10:33:49.540Z,-3.21
2023-01-29T10:36:34.569Z,-3.37
2023-01-29T10:39:02.452Z,-3.46
2023-01-29T10:41:59.234Z,-3.19
2023-01-29T10:44:30.856Z,-3.09
2023-01-29T10:47:16.162Z,-3.05
2023-01-29T10:49:46.979Z,-2.98
2023-01-29T10:52:24.061Z,-2.96
2023-01-29T10:55:03.622Z,-2.88
2023-01-29T10:58:09.631Z,-2.93
2023-01-29T11:00:41.945Z,-2.96
2023-01-29T11:03:28.340Z,-2.89
2023-01-29T11:06:15.025Z,-2.84
2023-01-29T11:08:57.401Z,-3.09
2023-01-29T11:11:34.718Z,-2.93
2023-01-29T11:14:07.553Z,-2.88
2023-01-29T11:16:43.936Z,-2.79
2023-01-29T11:19:12.228Z,-2.77
2023-01-29T11:22:01.418Z,-2.55
2023-01-29T11:24:28.902Z,-2.56
2023-01-29T11:27:00.125Z,-2.41
2023-01-29T11:29:28.024Z,-2.46
2023-01-29T11:31:58.237Z,-2.24
2023-01-29T11:34:31.251Z,-2.21
2023-01-29T11:37:15.784Z,-1.99
2023-01-29T11:39:47.500Z,-1.86
2023-01-29T11:42:24.457Z,-1.89
2023-01-29T11:44:51.820Z,-2.26
2023-01-29T11:47:27.119Z,-2.32
2023-01-29T11:50:04.916Z,-2.01
2023-01-29T11:52:38.522Z,-1.79
2023-01-29T11:55:13.816Z,-2.02
2023-01-29T11:57:43.895Z,-2.15
2023-01-29T12:00:23.238Z,-2.29
2023-01-29T12:03:11.649Z,-2.49
2023-01-29T12:05:41.242Z,-2.75
2023-01-29T12:08:18.281Z,-2.60
2023-01-29T12:10:45.945Z,-2.08
2023-01-29T12:13:22.511Z,-2.16
2023-01-29T12:15:49.720Z,-2.50
2023-01-29T12:18:34.545Z,-2.75
2023-01-29T12:21:16.487Z,-2.96
2023-01-29T12:24:22.453Z,-2.99
2023-01-29T12:26:59.192Z,-2.73
2023-01-29T12:30:05.165Z,-2.60
2023-01-29T12:32:41.394Z,-2.63
2023-01-29T12:35:23.353Z,-2.54
2023-01-29T12:38:18.594Z,-2.46
2023-01-29T12:40:59.084Z,-2.51
2023-01-29T12:43:36.014Z,-2.63
2023-01-29T12:46:09.021Z,-2.61
2023-01-29T12:48:42.491Z,-2.66
2023-01-29T12:51:16.566Z,-2.82
2023-01-29T12:53:55.306Z,-2.73
2023-01-29T12:56:31.601Z,-2.55
2023-01-29T12:59:02.733Z,-2.80
2023-01-29T13:01:47.128Z,-2.89
2023-01-29T13:04:36.409Z,-2.83
2023-01-29T13:07:42.154Z,-2.77
2023-01-29T13:10:18.304Z,-2.74
2023-01-29T13:12:58.796Z,-2.99
2023-01-29T13:15:38.624Z,-3.00
2023-01-29T13:18:23.062Z,-3.03
2023-01-29T13:20:52.126Z,-3.13
2023-01-29T13:23:25.429Z,-3.06
2023-01-29T13:25:54.249Z,-3.11
2023-01-29T13:28:25.634Z,-3.08
2023-01-29T13:31:33.420Z,-2.91
2023-01-29T13:34:19.701Z,-2.98
2023-01-29T13:36:56.286Z,-2.89
2023-01-29T13:39:46.646Z,-3.17
2023-01-29T13:42:21.000Z,-2.92
2023-01-29T13:44:57.724Z,-2.68
2023-01-29T13:47:33.827Z,-2.49
2023-01-29T13:50:18.411Z,-2.34
2023-01-29T13:52:58.193Z,-2.20
2023-01-29T13:55:31.674Z,-2.41
2023-01-29T13:58:00.847Z,-2.79
2023-01-29T14:00:34.477Z,-2.75
2023-01-29T14:03:01.705Z,-2.92
2023-01-29T14:05:30.594Z,-2.80
2023-01-29T14:08:03.613Z,-2.64
2023-01-29T14:10:33.996Z,-2.47
2023-01-29T14:13:20.560Z,-2.33
2023-01-29T14:15:58.741Z,-2.35
2023-01-29T14:18:28.793Z,-2.39
2023-01-29T14:21:20.145Z,-2.45
2023-01-29T14:23:52.939Z,-2.51
2023-01-29T14:26:26.542Z,-2.54
2023-01-29T14:29:34.683Z,-2.45
2023-01-29T14:32:08.241Z,-2.55
2023-01-29T14:34:42.893Z,-2.95
2023-01-29T14:37:16.537Z,-2.98
2023-01-29T14:39:47.764Z,-3.03
2023-01-29T14:42:24.434Z,-3.18
2023-01-29T14:44:54.809Z,-3.39
2023-01-29T14:47:45.680Z,-3.50
2023-01-29T14:50:34.888Z,-3.62
2023-01-29T14:53:11.144Z,-3.97
2023-01-29T14:55:43.195Z,-4.02
2023-01-29T14:58:23.132Z,-4.06
2023-01-29T15:00:57.559Z,-4.27
2023-01-29T15:03:39.344Z,-4.43
2023-01-29T15:06:08.875Z,-4.46
2023-01-29T15:08:44.041Z,-4.46
2023-01-29T15:11:34.257Z,-4.59
2023-01-29T15:14:41.913Z,-4.71
2023-01-29T15:17:18.795Z,-4.82
2023-01-29T15:19:48.618Z,-4.95
2023-01-29T15:22:18.439Z,-5.07
2023-01-29T15:24:48.428Z,-5.18
2023-01-29T15:27:20.791Z,-5.32
2023-01-29T15:29:55.902Z,-5.28
2023-01-29T15:32:31.618Z,-5.28
2023-01-29T15:35:00.544Z,-5.33
2023-01-29T15:37:31.239Z,-5.30
2023-01-29T15:40:01.066Z,-5.33
2023-01-29T15:42:30.026Z,-5.35
2023-01-29T15:44:57.622Z,-5.43
2023-01-29T15:47:32.272Z,-5.42
2023-01-29T15:50:00.645Z,-5.54
2023-01-29T15:52:33.188Z,-5.54
2023-01-29T15:55:05.634Z,-5.57
2023-01-29T15:57:40.815Z,-5.58
2023-01-29T16:00:22.982Z,-5.61
2023-01-29T16:02:50.511Z,-5.70
2023-01-29T16:05:22.265Z,-5.72
2023-01-29T16:07:51.584Z,-5.69
2023-01-29T16:10:25.509Z,-5.79
2023-01-29T16:12:53.502Z,-5.92
2023-01-29T16:15:33.764Z,-5.82
2023-01-29T16:18:03.645Z,-5.93
2023-01-29T16:20:38.027Z,-6.01
2023-01-29T16:23:06.960Z,-6.03
2023-01-29T16:25:38.560Z,-6.05
2023-01-29T16:28:07.584Z,-6.11
2023-01-29T16:30:35.350Z,-6.28
2023-01-29T16:33:07.637Z,-6.23
2023-01-29T16:35:36.300Z,-6.27
2023-01-29T16:38:07.266Z,-6.21
2023-01-29T16:40:38.323Z,-6.25
2023-01-29T16:43:17.753Z,-6.23
2023-01-29T16:46:04.550Z,-6.26
2023-01-29T16:48:33.119Z,-6.24
2023-01-29T16:51:14.480Z,-6.27
2023-01-29T16:53:53.788Z,-6.29
2023-01-29T16:56:25.845Z,-6.36
2023-01-29T16:58:54.738Z,-6.40
2023-01-29T17:01:26.598Z,-6.43
2023-01-29T17:04:00.854Z,-6.53
2023-01-29T17:06:31.542Z,-6.70
2023-01-29T17:08:59.046Z,-6.83
2023-01-29T17:11:34.523Z,-6.81
2023-01-29T17:14:02.178Z,-6.94
2023-01-29T17:16:32.642Z,-6.90
2023-01-29T17:19:00.905Z,-6.96
2023-01-29T17:21:30.273Z,-6.98
2023-01-29T17:23:57.566Z,-7.09
2023-01-29T17:26:25.286Z,-7.10
2023-01-29T17:28:54.454Z,-7.08
2023-01-29T17:31:22.507Z,-7.24
2023-01-29T17:33:49.727Z,-7.34
2023-01-29T17:36:18.303Z,-7.26
2023-01-29T17:38:45.977Z,-7.39
2023-01-29T17:41:19.729Z,-7.43
2023-01-29T17:43:46.954Z,-7.44
2023-01-29T17:46:16.424Z,-7.49
2023-01-29T17:48:44.411Z,-7.42
2023-01-29T17:51:14.860Z,-7.37
2023-01-29T17:53:46.722Z,-7.42
2023-01-29T17:56:30.395Z,-7.35
2023-01-29T17:58:57.700Z,-7.39
2023-01-29T18:01:25.185Z,-7.44
2023-01-29T18:03:52.543Z,-7.47
2023-01-29T18:06:28.564Z,-7.38
2023-01-29T18:08:56.690Z,-7.47
2023-01-29T18:11:24.916Z,-7.54
2023-01-29T18:13:52.297Z,-7.66
2023-01-29T18:16:22.123Z,-7.77
2023-01-29T18:18:50.893Z,-7.71
2023-01-29T18:21:18.804Z,-7.87
2023-01-29T18:23:46.053Z,-7.94
2023-01-29T18:26:16.687Z,-8.01
2023-01-29T18:28:44.122Z,-8.18
2023-01-29T18:31:13.981Z,-8.26
2023-01-29T18:33:41.587Z,-8.37
2023-01-29T18:36:09.385Z,-8.52
2023-01-29T18:38:36.643Z,-8.61
2023-01-29T18:41:06.516Z,-8.64
2023-01-29T18:43:33.744Z,-8.75
2023-01-29T18:46:01.271Z,-8.71
2023-01-29T18:48:29.550Z,-8.68
2023-01-29T18:50:57.205Z,-8.72
2023-01-29T18:53:24.486Z,-8.66
2023-01-29T18:56:00.053Z,-8.56
2023-01-29T18:58:35.143Z,-8.64
2023-01-29T19:01:09.394Z,-8.52
2023-01-29T19:03:38.004Z,-8.58
2023-01-29T19:06:08.147Z,-8.54
2023-01-29T19:08:35.507Z,-8.62
2023-01-29T19:11:05.829Z,-8.53
2023-01-29T19:13:33.247Z,-8.50
2023-01-29T19:16:01.107Z,-8.55
2023-01-29T19:18:28.908Z,-8.55
2023-01-29T19:20:56.477Z,-8.63
2023-01-29T19:23:23.773Z,-8.59
2023-01-29T19:25:52.081Z,-8.55
2023-01-29T19:28:19.413Z,-8.52
2023-01-29T19:30:46.953Z,-8.48
2023-01-29T19:33:14.653Z,-8.36
2023-01-29T19:35:45.585Z,-8.29
2023-01-29T19:38:18.596Z,-8.27
2023-01-29T19:40:46.148Z,-8.30
2023-01-29T19:43:20.315Z,-8.24
2023-01-29T19:45:53.835Z,-8.22
2023-01-29T19:48:22.006Z,-8.24
2023-01-29T19:51:01.263Z,-8.22
2023-01-29T19:53:29.344Z,-8.30
2023-01-29T19:56:05.419Z,-8.27
2023-01-29T19:58:33.375Z,-8.34
2023-01-29T20:01:19.272Z,-8.29
2023-01-29T20:03:48.988Z,-8.28
2023-01-29T20:06:19.905Z,-8.28
2023-01-29T20:08:49.729Z,-8.26
2023-01-29T20:11:20.187Z,-8.02
2023-01-29T20:13:49.878Z,-7.95
2023-01-29T20:16:18.691Z,-7.88
2023-01-29T20:18:46.392Z,-7.88
2023-01-29T20:21:16.120Z,-7.83
2023-01-29T20:23:45.691Z,-7.90
2023-01-29T20:26:15.952Z,-7.79
2023-01-29T20:28:45.803Z,-7.72
2023-01-29T20:31:13.480Z,-7.81
2023-01-29T20:33:40.791Z,-7.74
2023-01-29T20:36:10.781Z,-7.70
2023-01-29T20:38:38.318Z,-7.68
2023-01-29T20:41:16.927Z,-7.72
2023-01-29T20:43:45.069Z,-7.59
2023-01-29T20:46:13.784Z,-7.52
2023-01-29T20:48:42.303Z,-7.48
2023-01-29T20:51:15.859Z,-7.35
2023-01-29T20:53:45.805Z,-7.30
2023-01-29T20:56:15.841Z,-7.23
2023-01-29T20:58:43.189Z,-7.22
2023-01-29T21:01:16.902Z,-7.07
2023-01-29T21:03:44.366Z,-7.09
2023-01-29T21:06:12.577Z,-7.04
2023-01-29T21:08:40.694Z,-6.98
2023-01-29T21:11:09.866Z,-6.85
2023-01-29T21:13:37.751Z,-6.72
2023-01-29T21:16:05.547Z,-6.65
2023-01-29T21:18:32.926Z,-6.58
2023-01-29T21:21:00.438Z,-6.56
2023-01-29T21:23:27.677Z,-6.48
2023-01-29T21:26:02.381Z,-6.37
2023-01-29T21:28:29.695Z,-6.39
2023-01-29T21:31:08.435Z,-6.25
2023-01-29T21:33:36.136Z,-6.34
2023-01-29T21:36:04.323Z,-6.37
2023-01-29T21:38:31.799Z,-6.40
2023-01-29T21:41:04.727Z,-6.45
2023-01-29T21:43:32.074Z,-6.39
2023-01-29T21:46:11.727Z,-6.32
2023-01-29T21:48:40.445Z,-6.33
2023-01-29T21:51:08.482Z,-6.32
2023-01-29T21:53:36.857Z,-6.34
2023-01-29T21:56:05.937Z,-6.19
2023-01-29T21:58:33.781Z,-6.22
2023-01-29T22:01:35.148Z,-6.31
2023-01-29T22:03:48.498Z,-6.35
2023-01-29T22:06:16.100Z,-6.39
2023-01-29T22:08:43.387Z,-6.46
2023-01-29T22:11:11.535Z,-6.47
2023-01-29T22:13:39.026Z,-6.49
2023-01-29T22:16:07.447Z,-6.44
2023-01-29T22:18:35.209Z,-6.38
2023-01-29T22:21:03.171Z,-6.47
2023-01-29T22:23:31.604Z,-6.45
2023-01-29T22:26:04.200Z,-6.43
2023-01-29T22:28:31.716Z,-6.48
2023-01-29T22:31:03.702Z,-6.44
2023-01-29T22:33:31.451Z,-6.46
2023-01-29T22:35:59.309Z,-6.40
2023-01-29T22:38:26.693Z,-6.34
2023-01-29T22:40:55.690Z,-6.26
2023-01-29T22:43:23.489Z,-6.27
2023-01-29T22:45:50.978Z,-6.28
2023-01-29T22:48:18.238Z,-6.27
2023-01-29T22:50:53.980Z,-6.34
2023-01-29T22:53:21.195Z,-6.36
2023-01-29T22:55:55.898Z,-6.13
2023-01-29T22:58:23.155Z,-6.21
2023-01-29T23:00:51.551Z,-6.15
2023-01-29T23:03:18.712Z,-6.16
2023-01-29T23:05:46.166Z,-6.12
2023-01-29T23:08:13.361Z,-6.10
2023-01-29T23:10:40.844Z,-6.08
2023-01-29T23:13:08.135Z,-6.06
2023-01-29T23:15:35.619Z,-6.02
2023-01-29T23:18:03.841Z,-6.06
2023-01-29T23:20:31.732Z,-6.00
2023-01-29T23:22:59.000Z,-5.98
2023-01-29T23:25:46.929Z,-6.01
2023-01-29T23:28:14.644Z,-5.93
2023-01-29T23:30:42.157Z,-5.86
2023-01-29T23:33:12.088Z,-5.85
2023-01-29T23:35:40.084Z,-5.82
2023-01-29T23:38:07.885Z,-5.80
2023-01-29T23:40:35.683Z,-5.80
2023-01-29T23:43:02.805Z,-5.84
2023-01-29T23:45:30.459Z,-5.82
2023-01-29T23:47:57.624Z,-6.02
2023-01-29T23:50:25.259Z,-6.03
2023-01-29T23:52:52.479Z,-6.03
2023-01-29T23:55:20.012Z,-5.99
2023-01-29T23:57:47.259Z,-6.00
